LEAS/OVD METAR and TAF weather

Enter ICAO airport designator
Station Type Date Time Source
LEAS METAR 2021/05/14 23:00 UTC NOAA

LEAS 142300Z AUTO 31003KT 280V340 9999 -RA BKN047 15/12 Q1013


Station Type Date Time Source
LEAS Decoded METAR 2021/05/14 23:00 UTC NOAA

Asturias / Aviles, Spain (LEAS) 43-33N 006-02W 130M
May 14, 2021 - 07:00 PM EDT / 2021.05.14 2300 UTC
Wind: from the NW (310 degrees) at 3 MPH (3 KT) (direction variable):0
Visibility: greater than 7 mile(s):0
Sky conditions: mostly cloudy
Weather: light rain
Temperature: 59 F (15 C)
Dew Point: 53 F (12 C)
Relative Humidity: 82%
Pressure (altimeter): 29.91 in. Hg (1013 hPa)
ob: LEAS 142300Z AUTO 31003KT 280V340 9999 -RA BKN047 15/12 Q1013
cycle: 23

Station Type Date Time Source
LEAS TAF 2021/05/14 21:27 UTC NOAA

TAF TAF LEAS 142000Z 1421/1521 26008KT 9999 FEW025 BKN040 TX19/1514Z TN12/1422Z PROB40
TEMPO 1505/1515 32010KT 3000 -RADZ BR BKN010
TEMPO 1512/1516 27015G25KT
TEMPO 1518/1521 3000 RA BKN010 PROB40
TEMPO 1518/1521 1500 RA BKN005

Example: see airport list